createdAt,value
2018-02-10T00:00:54.554Z,97.80
2018-02-10T00:03:22.092Z,98.00
2018-02-10T00:05:50.401Z,98.70
2018-02-10T00:08:17.939Z,98.70
2018-02-10T00:10:46.239Z,98.70
2018-02-10T00:13:13.951Z,98.70
2018-02-10T00:15:41.525Z,99.00
2018-02-10T00:18:09.059Z,98.90
2018-02-10T00:20:37.618Z,99.10
2018-02-10T00:23:05.188Z,99.10
2018-02-10T00:25:32.718Z,99.30
2018-02-10T00:28:00.375Z,98.90
2018-02-10T00:30:27.957Z,99.00
2018-02-10T00:32:55.490Z,99.10
2018-02-10T00:35:23.096Z,99.00
2018-02-10T00:37:50.673Z,98.90
2018-02-10T00:40:18.213Z,98.80
2018-02-10T00:42:46.636Z,99.30
2018-02-10T00:45:14.175Z,99.30
2018-02-10T00:47:41.648Z,99.40
2018-02-10T00:50:09.194Z,98.80
2018-02-10T00:52:37.506Z,99.40
2018-02-10T00:55:05.041Z,99.40
2018-02-10T00:57:32.541Z,99.80
2018-02-10T01:00:00.122Z,99.70
2018-02-10T01:02:27.660Z,99.40
2018-02-10T01:04:55.484Z,99.20
2018-02-10T01:07:23.823Z,99.00
2018-02-10T01:09:51.400Z,99.00
2018-02-10T01:12:19.009Z,99.00
2018-02-10T01:14:46.555Z,99.40
2018-02-10T01:17:14.091Z,99.40
2018-02-10T01:19:42.535Z,99.10
2018-02-10T01:22:10.077Z,99.10
2018-02-10T01:24:37.650Z,99.30
2018-02-10T01:27:05.342Z,99.10
2018-02-10T01:29:32.871Z,98.90
2018-02-10T01:32:01.176Z,99.00
2018-02-10T01:34:28.776Z,99.00
2018-02-10T01:36:57.116Z,98.90
2018-02-10T01:39:25.619Z,98.90
2018-02-10T01:41:53.309Z,98.70
2018-02-10T01:44:20.847Z,98.50
2018-02-10T01:46:48.384Z,98.90
2018-02-10T01:49:16.189Z,98.90
2018-02-10T01:51:44.532Z,99.30
2018-02-10T01:54:12.113Z,99.30
2018-02-10T01:56:39.885Z,99.30
2018-02-10T01:59:07.426Z,99.30
2018-02-10T02:01:34.954Z,99.50
2018-02-10T02:04:02.514Z,99.50
2018-02-10T02:06:30.059Z,99.50
2018-02-10T02:08:57.756Z,99.90
2018-02-10T02:11:26.091Z,99.60
2018-02-10T02:13:53.660Z,99.50
2018-02-10T02:16:21.913Z,99.80
2018-02-10T02:18:49.496Z,99.50
2018-02-10T02:21:17.081Z,99.90
2018-02-10T02:23:44.618Z,99.90
2018-02-10T02:26:12.217Z,99.90
2018-02-10T02:28:39.815Z,99.70
2018-02-10T02:31:07.301Z,99.40
2018-02-10T02:33:35.854Z,99.70
2018-02-10T02:36:04.212Z,99.90
2018-02-10T02:38:32.505Z,99.90
2018-02-10T02:41:00.089Z,99.90
2018-02-10T02:43:27.639Z,99.80
2018-02-10T02:45:55.177Z,99.40
2018-02-10T02:48:23.695Z,99.60
2018-02-10T02:50:51.273Z,99.60
2018-02-10T02:53:18.811Z,99.40
2018-02-10T02:55:46.412Z,98.90
2018-02-10T02:58:14.761Z,99.50
2018-02-10T03:00:43.069Z,99.30
2018-02-10T03:03:10.885Z,99.20
2018-02-10T03:05:39.192Z,99.10
2018-02-10T03:08:06.772Z,99.10
2018-02-10T03:10:34.536Z,99.00
2018-02-10T03:13:02.831Z,98.90
2018-02-10T03:15:30.363Z,98.90
2018-02-10T03:17:58.035Z,99.20
2018-02-10T03:20:25.578Z,98.90
2018-02-10T03:22:53.116Z,98.90
2018-02-10T03:25:21.005Z,98.70
2018-02-10T03:27:48.584Z,99.50
2018-02-10T03:30:16.168Z,99.90
2018-02-10T03:32:43.960Z,99.70
2018-02-10T03:35:12.251Z,99.90
2018-02-10T03:37:39.775Z,99.90
2018-02-10T03:40:07.587Z,99.40
2018-02-10T03:42:35.126Z,99.90
2018-02-10T03:45:02.713Z,99.70
2018-02-10T03:47:31.139Z,99.10
2018-02-10T03:49:58.679Z,99.10
2018-02-10T03:52:26.257Z,99.40
2018-02-10T03:54:54.583Z,99.10
2018-02-10T03:57:22.156Z,99.10
2018-02-10T03:59:50.489Z,98.70
2018-02-10T04:02:18.273Z,98.80
2018-02-10T04:04:46.582Z,99.20
2018-02-10T04:07:14.156Z,99.20
2018-02-10T04:09:41.899Z,99.50
2018-02-10T04:12:09.448Z,99.90
2018-02-10T04:14:36.924Z,99.80
2018-02-10T04:17:04.566Z,99.80
2018-02-10T04:19:32.900Z,99.90
2018-02-10T04:22:00.474Z,99.90
2018-02-10T04:24:28.848Z,99.80
2018-02-10T04:26:56.383Z,99.80
2018-02-10T04:29:23.914Z,99.90
2018-02-10T04:31:52.556Z,99.20
2018-02-10T04:34:20.095Z,99.20
2018-02-10T04:36:47.678Z,99.20
2018-02-10T04:39:16.002Z,99.90
2018-02-10T04:41:43.543Z,99.90
2018-02-10T04:44:11.116Z,99.30
2018-02-10T04:46:39.656Z,99.20
2018-02-10T04:49:07.232Z,99.20
2018-02-10T04:51:35.539Z,99.00
2018-02-10T04:54:03.358Z,99.10
2018-02-10T04:56:30.891Z,99.00
2018-02-10T04:58:59.236Z,98.50
2018-02-10T05:01:26.808Z,98.50
2018-02-10T05:03:54.377Z,98.50
2018-02-10T05:06:21.915Z,98.60
2018-02-10T05:08:49.836Z,99.10
2018-02-10T05:11:18.142Z,99.70
2018-02-10T05:13:45.683Z,99.70
2018-02-10T05:16:13.251Z,99.60
2018-02-10T05:18:40.828Z,99.20
2018-02-10T05:21:09.249Z,99.60
2018-02-10T05:23:37.092Z,99.60
2018-02-10T05:26:04.661Z,99.50
2018-02-10T05:28:32.227Z,99.20
2018-02-10T05:31:00.596Z,99.90
2018-02-10T05:33:28.899Z,99.80
2018-02-10T05:35:56.468Z,99.80
2018-02-10T05:38:24.429Z,99.80
2018-02-10T05:40:51.966Z,99.70
2018-02-10T05:43:19.544Z,99.70
2018-02-10T05:45:47.144Z,99.90
2018-02-10T05:48:14.675Z,99.90
2018-02-10T05:50:42.203Z,99.90
2018-02-10T05:53:09.957Z,99.90
2018-02-10T05:55:37.600Z,99.90
2018-02-10T05:58:05.138Z,99.70
2018-02-10T06:00:33.060Z,99.70
2018-02-10T06:03:01.369Z,99.90
2018-02-10T06:05:28.910Z,99.90
2018-02-10T06:07:56.563Z,99.90
2018-02-10T06:10:24.100Z,99.90
2018-02-10T06:12:51.668Z,99.90
2018-02-10T06:15:19.656Z,99.90
2018-02-10T06:17:47.995Z,99.90
2018-02-10T06:20:15.571Z,99.90
2018-02-10T06:22:43.117Z,99.90
2018-02-10T06:25:11.449Z,99.90
2018-02-10T06:27:38.960Z,99.90
2018-02-10T06:30:06.519Z,99.90
2018-02-10T06:32:34.096Z,99.90
2018-02-10T06:35:02.436Z,99.90
2018-02-10T06:37:30.042Z,99.90
2018-02-10T06:39:57.620Z,99.90
2018-02-10T06:42:25.198Z,99.90
2018-02-10T06:44:53.142Z,99.90
2018-02-10T06:47:21.451Z,99.90
2018-02-10T06:49:49.030Z,99.90
2018-02-10T06:52:16.881Z,99.90
2018-02-10T06:54:44.420Z,99.90
2018-02-10T06:57:11.955Z,99.90
2018-02-10T06:59:39.689Z,99.90
2018-02-10T07:02:07.264Z,99.90
2018-02-10T07:04:35.600Z,99.90
2018-02-10T07:07:03.307Z,99.90
2018-02-10T07:09:30.873Z,99.90
2018-02-10T07:11:58.449Z,99.90
2018-02-10T07:14:26.236Z,99.90
2018-02-10T07:16:53.776Z,99.90
2018-02-10T07:19:22.112Z,99.90
2018-02-10T07:21:49.720Z,99.90
2018-02-10T07:24:17.272Z,99.90
2018-02-10T07:26:44.802Z,99.90
2018-02-10T07:29:12.402Z,99.90
2018-02-10T07:31:40.740Z,99.90
2018-02-10T07:34:08.316Z,99.90
2018-02-10T07:36:35.879Z,99.90
2018-02-10T07:39:03.406Z,99.90
2018-02-10T07:41:31.703Z,99.90
2018-02-10T07:43:59.474Z,99.90
2018-02-10T07:46:27.015Z,99.90
2018-02-10T07:48:54.596Z,99.90
2018-02-10T07:51:23.023Z,99.90
2018-02-10T07:53:50.559Z,99.90
2018-02-10T07:56:18.041Z,99.90
2018-02-10T07:58:46.604Z,99.90
2018-02-10T08:01:14.948Z,99.90
2018-02-10T08:03:42.524Z,99.90
2018-02-10T08:06:10.050Z,99.90
2018-02-10T08:08:37.574Z,99.90
2018-02-10T08:11:05.096Z,99.10
2018-02-10T08:13:32.639Z,99.90
2018-02-10T08:16:00.178Z,99.70
2018-02-10T08:18:27.752Z,98.30
2018-02-10T08:20:55.356Z,98.40
2018-02-10T08:23:22.890Z,96.60
2018-02-10T08:25:50.402Z,96.80
2018-02-10T08:28:18.123Z,95.10
2018-02-10T08:30:45.659Z,94.00
2018-02-10T08:33:13.232Z,93.80
2018-02-10T08:35:41.516Z,94.20
2018-02-10T08:38:09.807Z,94.00
2018-02-10T08:40:37.351Z,94.00
2018-02-10T08:43:05.032Z,93.60
2018-02-10T08:45:32.588Z,93.90
2018-02-10T08:48:00.124Z,93.50
2018-02-10T08:50:27.742Z,93.20
2018-02-10T08:52:55.312Z,93.50
2018-02-10T08:55:22.923Z,92.40
2018-02-10T08:57:51.322Z,92.30
2018-02-10T09:00:18.884Z,92.30
2018-02-10T09:02:47.228Z,92.40
2018-02-10T09:05:14.875Z,92.40
2018-02-10T09:07:42.407Z,92.70
2018-02-10T09:10:09.940Z,92.50
2018-02-10T09:12:37.698Z,92.90
2018-02-10T09:15:05.247Z,92.20
2018-02-10T09:17:32.796Z,93.00
2018-02-10T09:20:00.532Z,91.20
2018-02-10T09:22:28.108Z,92.00
2018-02-10T09:24:56.413Z,90.20
2018-02-10T09:27:24.054Z,90.20
2018-02-10T09:29:51.676Z,90.20
2018-02-10T09:32:19.202Z,90.10
2018-02-10T09:34:47.539Z,91.90
2018-02-10T09:37:15.108Z,91.90
2018-02-10T09:39:43.444Z,90.50
2018-02-10T09:42:11.049Z,90.50
2018-02-10T09:44:38.578Z,89.60
2018-02-10T09:47:06.111Z,89.40
2018-02-10T09:49:33.723Z,90.10
2018-02-10T09:52:01.255Z,90.90
2018-02-10T09:54:28.799Z,90.70
2018-02-10T09:56:56.305Z,88.00
2018-02-10T09:59:23.834Z,89.00
2018-02-10T10:01:51.411Z,89.40
2018-02-10T10:04:19.015Z,87.80
2018-02-10T10:06:47.344Z,88.70
2018-02-10T10:09:14.883Z,88.60
2018-02-10T10:11:42.605Z,90.00
2018-02-10T10:14:10.145Z,88.20
2018-02-10T10:16:37.738Z,88.90
2018-02-10T10:19:06.072Z,87.50
2018-02-10T10:21:33.636Z,87.60
2018-02-10T10:24:01.215Z,86.60
2018-02-10T10:26:28.819Z,87.10
2018-02-10T10:28:56.630Z,87.00
2018-02-10T10:31:24.203Z,87.70
2018-02-10T10:33:51.751Z,87.60
2018-02-10T10:36:19.284Z,87.40
2018-02-10T10:38:46.764Z,84.80
2018-02-10T10:41:15.078Z,86.30
2018-02-10T10:43:42.607Z,86.30
2018-02-10T10:46:10.190Z,85.10
2018-02-10T10:48:38.468Z,84.80
2018-02-10T10:51:07.255Z,85.50
2018-02-10T10:53:35.072Z,83.30
2018-02-10T10:56:04.654Z,84.90
2018-02-10T10:58:32.264Z,84.00
2018-02-10T11:00:59.840Z,86.20
2018-02-10T11:03:27.632Z,84.50
2018-02-10T11:05:55.968Z,85.90
2018-02-10T11:08:23.539Z,86.30
2018-02-10T11:10:51.854Z,88.10
2018-02-10T11:13:19.388Z,88.00
2018-02-10T11:15:47.695Z,82.60
2018-02-10T11:18:15.243Z,82.70
2018-02-10T11:20:42.813Z,83.90
2018-02-10T11:23:10.355Z,85.60
2018-02-10T11:25:37.900Z,83.70
2018-02-10T11:28:05.484Z,83.00
2018-02-10T11:30:33.812Z,79.20
2018-02-10T11:33:01.588Z,79.20
2018-02-10T11:35:29.165Z,79.80
2018-02-10T11:37:57.308Z,80.30
2018-02-10T11:40:25.136Z,82.20
2018-02-10T11:42:53.430Z,78.40
2018-02-10T11:45:21.000Z,77.60
2018-02-10T11:47:48.559Z,78.10
2018-02-10T11:50:16.132Z,79.10
2018-02-10T11:52:44.468Z,76.90
2018-02-10T11:55:12.015Z,76.80
2018-02-10T11:57:39.546Z,77.50
2018-02-10T12:00:07.177Z,77.50
2018-02-10T12:02:34.884Z,76.40
2018-02-10T12:05:02.421Z,78.10
2018-02-10T12:07:30.752Z,78.30
2018-02-10T12:09:58.260Z,78.10
2018-02-10T12:12:25.787Z,79.20
2018-02-10T12:14:53.314Z,79.30
2018-02-10T12:17:21.840Z,78.20
2018-02-10T12:19:49.403Z,78.20
2018-02-10T12:22:16.968Z,76.40
2018-02-10T12:24:44.667Z,74.60
2018-02-10T12:27:12.240Z,75.70
2018-02-10T12:29:40.663Z,73.00
2018-02-10T12:32:08.411Z,72.40
2018-02-10T12:34:35.981Z,71.20
2018-02-10T12:37:03.511Z,73.60
2018-02-10T12:39:31.301Z,73.10
2018-02-10T12:41:59.632Z,73.90
2018-02-10T12:44:27.166Z,74.00
2018-02-10T12:46:55.780Z,74.30
2018-02-10T12:49:28.963Z,74.30
2018-02-10T12:51:56.733Z,75.60
2018-02-10T12:54:24.267Z,74.70
2018-02-10T12:56:51.809Z,75.10
2018-02-10T12:59:19.555Z,73.90
2018-02-10T13:01:47.097Z,75.00
2018-02-10T13:04:14.682Z,74.00
2018-02-10T13:06:42.272Z,75.70
2018-02-10T13:09:09.843Z,74.60
2018-02-10T13:11:37.371Z,75.90
2018-02-10T13:14:05.125Z,76.60
2018-02-10T13:16:32.652Z,76.40
2018-02-10T13:19:00.189Z,76.00
2018-02-10T13:21:27.748Z,75.00
2018-02-10T13:23:55.307Z,74.70
2018-02-10T13:26:22.872Z,75.20
2018-02-10T13:28:51.188Z,74.20
2018-02-10T13:31:18.769Z,74.00
2018-02-10T13:33:46.360Z,73.00
2018-02-10T13:36:13.953Z,72.70
2018-02-10T13:38:41.530Z,72.10
2018-02-10T13:41:09.067Z,72.50
2018-02-10T13:43:36.648Z,73.00
2018-02-10T13:46:04.179Z,72.10
2018-02-10T13:48:37.936Z,73.10
2018-02-10T13:51:06.272Z,75.40
2018-02-10T13:53:33.840Z,75.40
2018-02-10T13:56:02.307Z,76.30
2018-02-10T13:58:29.884Z,76.30
2018-02-10T14:00:57.424Z,78.20
2018-02-10T14:03:25.788Z,77.80
2018-02-10T14:05:53.323Z,77.80
2018-02-10T14:08:21.666Z,79.40
2018-02-10T14:10:49.632Z,79.20
2018-02-10T14:13:17.952Z,79.80
2018-02-10T14:15:45.505Z,79.70
2018-02-10T14:18:13.047Z,80.30
2018-02-10T14:20:40.581Z,81.60
2018-02-10T14:23:08.156Z,82.40
2018-02-10T14:25:35.724Z,82.60
2018-02-10T14:28:03.292Z,83.10
2018-02-10T14:30:30.864Z,82.10
2018-02-10T14:32:58.420Z,81.60
2018-02-10T14:35:26.027Z,81.60
2018-02-10T14:37:53.506Z,82.10
2018-02-10T14:40:21.149Z,82.10
2018-02-10T14:42:48.686Z,82.70
2018-02-10T14:45:16.194Z,82.40
2018-02-10T14:47:43.822Z,82.50
2018-02-10T14:50:12.119Z,83.50
2018-02-10T14:52:39.662Z,83.60
2018-02-10T14:55:07.207Z,80.50
2018-02-10T14:57:34.772Z,80.20
2018-02-10T15:00:02.306Z,78.50
2018-02-10T15:02:29.882Z,77.50
2018-02-10T15:04:57.441Z,78.10
2018-02-10T15:07:25.020Z,78.00
2018-02-10T15:09:52.753Z,78.50
2018-02-10T15:12:20.325Z,77.50
2018-02-10T15:14:47.865Z,76.90
2018-02-10T15:17:15.627Z,78.60
2018-02-10T15:19:43.928Z,79.50
2018-02-10T15:22:12.232Z,79.70
2018-02-10T15:24:40.004Z,79.50
2018-02-10T15:27:07.749Z,78.90
2018-02-10T15:29:47.461Z,79.00
2018-02-10T15:32:26.864Z,80.50
2018-02-10T15:34:57.920Z,80.00
2018-02-10T15:37:25.413Z,80.20
2018-02-10T15:39:53.704Z,80.00
2018-02-10T15:42:21.609Z,80.00
2018-02-10T15:44:49.913Z,80.60
2018-02-10T15:47:17.488Z,80.60
2018-02-10T15:49:45.043Z,81.10
2018-02-10T15:52:12.605Z,81.30
2018-02-10T15:54:40.945Z,82.50
2018-02-10T15:57:08.511Z,82.50
2018-02-10T15:59:36.825Z,79.60
2018-02-10T16:02:04.392Z,79.50
2018-02-10T16:04:32.160Z,79.70
2018-02-10T16:07:00.496Z,80.50
2018-02-10T16:09:28.061Z,80.40
2018-02-10T16:11:56.746Z,80.20
2018-02-10T16:14:25.080Z,78.50
2018-02-10T16:16:52.706Z,78.50
2018-02-10T16:19:20.310Z,79.40
2018-02-10T16:21:47.839Z,78.10
2018-02-10T16:24:16.143Z,80.70
2018-02-10T16:26:43.717Z,80.70
2018-02-10T16:29:11.284Z,82.20
2018-02-10T16:31:39.625Z,85.60
2018-02-10T16:34:07.167Z,85.60
2018-02-10T16:36:34.735Z,86.40
2018-02-10T16:39:03.036Z,90.00
2018-02-10T16:41:30.629Z,89.40
2018-02-10T16:43:58.158Z,90.30
2018-02-10T16:46:25.738Z,90.20
2018-02-10T16:48:53.308Z,91.10
2018-02-10T16:51:20.889Z,91.00
2018-02-10T16:53:48.452Z,91.20
2018-02-10T16:56:17.032Z,91.60
2018-02-10T16:58:45.369Z,91.60
2018-02-10T17:01:12.945Z,91.60
2018-02-10T17:03:40.628Z,91.60
2018-02-10T17:06:08.160Z,91.80
2018-02-10T17:08:35.737Z,91.90
2018-02-10T17:11:03.520Z,91.70
2018-02-10T17:13:31.806Z,92.30
2018-02-10T17:15:59.375Z,92.30
2018-02-10T17:18:26.932Z,92.50
2018-02-10T17:20:54.459Z,92.30
2018-02-10T17:23:22.001Z,93.10
2018-02-10T17:25:49.596Z,93.30
2018-02-10T17:28:17.900Z,93.20
2018-02-10T17:30:45.464Z,93.20
2018-02-10T17:33:13.022Z,93.60
2018-02-10T17:35:40.596Z,93.70
2018-02-10T17:38:08.893Z,94.20
2018-02-10T17:40:36.771Z,94.20
2018-02-10T17:43:04.301Z,94.50
2018-02-10T17:45:31.864Z,94.50
2018-02-10T17:47:59.551Z,94.70
2018-02-10T17:50:27.123Z,94.90
2018-02-10T17:52:54.652Z,95.00
2018-02-10T17:55:22.261Z,95.30
2018-02-10T17:57:49.827Z,95.30
2018-02-10T18:00:17.389Z,95.30
2018-02-10T18:02:44.896Z,95.60
2018-02-10T18:05:12.457Z,96.00
2018-02-10T18:07:39.941Z,96.20
2018-02-10T18:10:07.751Z,96.20
2018-02-10T18:12:35.316Z,96.30
2018-02-10T18:15:02.901Z,96.40
2018-02-10T18:17:30.459Z,96.30
2018-02-10T18:19:57.991Z,96.70
2018-02-10T18:22:25.530Z,96.80
2018-02-10T18:24:53.225Z,96.80
2018-02-10T18:27:20.779Z,96.90
2018-02-10T18:29:48.345Z,96.60
2018-02-10T18:32:16.200Z,96.50
2018-02-10T18:34:43.899Z,97.20
2018-02-10T18:37:12.215Z,96.80
2018-02-10T18:39:39.878Z,96.70
2018-02-10T18:42:07.444Z,96.40
2018-02-10T18:44:35.746Z,96.20
2018-02-10T18:47:03.641Z,96.20
2018-02-10T18:49:31.211Z,96.00
2018-02-10T18:51:58.775Z,95.60
2018-02-10T18:54:26.544Z,95.60
2018-02-10T18:56:54.113Z,95.40
2018-02-10T18:59:21.647Z,95.40
2018-02-10T19:01:49.295Z,95.10
2018-02-10T19:04:16.888Z,95.10
2018-02-10T19:06:44.542Z,94.90
2018-02-10T19:09:12.103Z,94.90
2018-02-10T19:11:39.635Z,94.80
2018-02-10T19:14:07.175Z,94.60
2018-02-10T19:16:34.814Z,94.10
2018-02-10T19:19:02.384Z,94.20
2018-02-10T19:21:30.698Z,93.60
2018-02-10T19:23:59.060Z,93.90
2018-02-10T19:26:27.400Z,93.40
2018-02-10T19:28:54.968Z,93.40
2018-02-10T19:31:23.557Z,93.00
2018-02-10T19:33:51.088Z,93.00
2018-02-10T19:36:18.635Z,93.00
2018-02-10T19:38:46.486Z,92.90
2018-02-10T19:41:14.085Z,93.00
2018-02-10T19:43:41.622Z,93.00
2018-02-10T19:46:09.202Z,93.70
2018-02-10T19:48:36.760Z,93.70
2018-02-10T19:51:04.360Z,94.10
2018-02-10T19:53:32.112Z,94.20
2018-02-10T19:55:59.687Z,94.00
2018-02-10T19:58:28.025Z,94.20
2018-02-10T20:00:55.671Z,94.20
2018-02-10T20:03:23.208Z,93.80
2018-02-10T20:05:50.788Z,93.90
2018-02-10T20:08:19.163Z,93.90
2018-02-10T20:10:46.745Z,93.80
2018-02-10T20:13:14.295Z,93.40
2018-02-10T20:15:41.990Z,93.30
2018-02-10T20:18:10.284Z,93.90
2018-02-10T20:20:37.856Z,93.90
2018-02-10T20:23:05.598Z,93.70
2018-02-10T20:25:33.181Z,93.30
2018-02-10T20:28:01.516Z,94.10
2018-02-10T20:30:29.112Z,94.10
2018-02-10T20:32:56.692Z,93.80
2018-02-10T20:35:24.261Z,93.60
2018-02-10T20:37:51.844Z,93.60
2018-02-10T20:40:19.451Z,93.50
2018-02-10T20:42:47.771Z,93.80
2018-02-10T20:45:15.334Z,93.70
2018-02-10T20:47:42.909Z,93.50
2018-02-10T20:50:11.253Z,93.00
2018-02-10T20:52:38.949Z,93.00
2018-02-10T20:55:06.476Z,93.50
2018-02-10T20:57:34.015Z,93.20
2018-02-10T21:00:01.613Z,93.50
2018-02-10T21:02:29.989Z,92.90
2018-02-10T21:04:57.559Z,92.90
2018-02-10T21:07:25.892Z,92.70
2018-02-10T21:09:53.477Z,92.70
2018-02-10T21:12:21.016Z,92.80
2018-02-10T21:14:49.388Z,93.10
2018-02-10T21:17:16.927Z,93.10
2018-02-10T21:19:44.496Z,93.20
2018-02-10T21:22:12.059Z,93.10
2018-02-10T21:24:39.654Z,93.50
2018-02-10T21:27:07.191Z,93.10
2018-02-10T21:29:34.822Z,92.70
2018-02-10T21:32:02.401Z,92.80
2018-02-10T21:34:29.978Z,92.80
2018-02-10T21:36:57.551Z,93.60
2018-02-10T21:39:25.129Z,93.10
2018-02-10T21:41:52.673Z,93.20
2018-02-10T21:44:20.297Z,92.70
2018-02-10T21:46:48.641Z,93.00
2018-02-10T21:49:16.175Z,93.00
2018-02-10T21:51:43.925Z,93.00
2018-02-10T21:54:11.433Z,92.60
2018-02-10T21:56:39.975Z,92.50
2018-02-10T21:59:07.875Z,93.20
2018-02-10T22:01:35.452Z,92.90
2018-02-10T22:04:03.731Z,92.40
2018-02-10T22:06:32.057Z,92.70
2018-02-10T22:08:59.595Z,92.70
2018-02-10T22:11:28.117Z,91.90
2018-02-10T22:13:55.708Z,92.00
2018-02-10T22:19:05.943Z,91.50
2018-02-10T22:21:34.297Z,92.00
2018-02-10T22:24:01.831Z,92.10
2018-02-10T22:26:29.404Z,91.90
2018-02-10T22:28:56.976Z,92.90
2018-02-10T22:31:25.280Z,92.40
2018-02-10T22:33:52.854Z,92.30
2018-02-10T22:36:20.432Z,92.20
2018-02-10T22:38:48.020Z,91.90
2018-02-10T22:41:15.624Z,91.80
2018-02-10T22:43:43.213Z,91.80
2018-02-10T22:46:10.746Z,90.70
2018-02-10T22:48:38.547Z,90.70
2018-02-10T22:51:06.889Z,90.80
2018-02-10T22:53:34.480Z,90.80
2018-02-10T22:56:02.178Z,89.90
2018-02-10T22:58:29.715Z,90.10
2018-02-10T23:01:03.087Z,90.30
2018-02-10T23:03:30.661Z,90.60
2018-02-10T23:05:58.963Z,88.50
2018-02-10T23:08:26.552Z,88.30
2018-02-10T23:10:54.124Z,89.60
2018-02-10T23:13:22.426Z,86.80
2018-02-10T23:15:49.991Z,86.80
2018-02-10T23:18:17.544Z,88.00
2018-02-10T23:20:45.020Z,86.30
2018-02-10T23:23:13.365Z,88.00
2018-02-10T23:25:41.680Z,89.20
2018-02-10T23:28:09.190Z,89.10
2018-02-10T23:30:37.548Z,89.30
2018-02-10T23:33:05.078Z,89.30
2018-02-10T23:35:35.373Z,86.90
2018-02-10T23:38:02.986Z,86.80
2018-02-10T23:40:30.511Z,88.40
2018-02-10T23:42:58.039Z,87.10
2018-02-10T23:45:27.717Z,90.10
2018-02-10T23:47:56.022Z,89.90
2018-02-10T23:50:23.554Z,90.00
2018-02-10T23:52:51.468Z,89.40
2018-02-10T23:55:19.767Z,89.40
2018-02-10T23:57:47.303Z,89.40
